createdAt,value
2023-05-05T00:00:30.136Z,0.00
2023-05-05T00:01:30.087Z,0.00
2023-05-05T00:02:30.135Z,0.00
2023-05-05T00:03:30.126Z,0.00
2023-05-05T00:04:30.049Z,0.00
2023-05-05T00:05:30.037Z,0.00
2023-05-05T00:06:30.019Z,0.00
2023-05-05T00:07:29.997Z,0.00
2023-05-05T00:08:30.061Z,0.00
2023-05-05T00:09:29.965Z,0.00
2023-05-05T00:10:29.945Z,0.00
2023-05-05T00:11:29.925Z,0.00
2023-05-05T00:12:29.953Z,0.00
2023-05-05T00:13:29.929Z,0.00
2023-05-05T00:14:30.044Z,0.00
2023-05-05T00:15:29.878Z,0.00
2023-05-05T00:16:29.910Z,0.00
2023-05-05T00:17:29.897Z,0.00
2023-05-05T00:18:29.856Z,0.00
2023-05-05T00:19:29.815Z,0.00
2023-05-05T00:20:29.817Z,0.00
2023-05-05T00:21:29.823Z,0.00
2023-05-05T00:22:29.792Z,0.00
2023-05-05T00:23:29.795Z,0.00
2023-05-05T00:24:29.792Z,0.00
2023-05-05T00:25:29.739Z,0.00
2023-05-05T00:26:29.760Z,0.00
2023-05-05T00:27:29.718Z,0.00
2023-05-05T00:28:29.716Z,0.00
2023-05-05T00:29:29.702Z,0.00
2023-05-05T00:30:29.684Z,0.00
2023-05-05T00:31:29.721Z,0.00
2023-05-05T00:32:29.700Z,0.00
2023-05-05T00:33:29.653Z,0.00
2023-05-05T00:34:29.636Z,0.00
2023-05-05T00:35:29.635Z,0.00
2023-05-05T00:36:29.599Z,0.00
2023-05-05T00:37:29.588Z,0.00
2023-05-05T00:38:29.630Z,0.00
2023-05-05T00:39:29.564Z,0.00
2023-05-05T00:40:29.567Z,0.00
2023-05-05T00:41:29.537Z,0.00
2023-05-05T00:42:29.522Z,0.00
2023-05-05T00:43:29.536Z,0.00
2023-05-05T00:44:29.513Z,0.00
2023-05-05T00:45:29.477Z,0.00
2023-05-05T00:46:29.554Z,0.00
2023-05-05T00:47:29.470Z,0.00
2023-05-05T00:48:29.453Z,0.00
2023-05-05T00:49:29.479Z,0.00
2023-05-05T00:50:29.420Z,0.00
2023-05-05T00:51:29.499Z,0.00
2023-05-05T00:52:29.583Z,0.00
2023-05-05T00:53:29.365Z,0.00
2023-05-05T00:54:29.362Z,0.00
2023-05-05T00:55:29.363Z,0.00
2023-05-05T00:56:29.336Z,0.00
2023-05-05T00:57:29.312Z,0.00
2023-05-05T00:58:29.291Z,0.00
2023-05-05T00:59:29.282Z,0.00
2023-05-05T01:00:29.298Z,0.00
2023-05-05T01:01:29.297Z,0.00
2023-05-05T01:02:29.284Z,0.00
2023-05-05T01:03:29.313Z,0.00
2023-05-05T01:04:29.230Z,0.00
2023-05-05T01:05:29.221Z,0.00
2023-05-05T01:06:29.217Z,0.00
2023-05-05T01:07:29.173Z,0.00
2023-05-05T01:08:29.215Z,0.00
2023-05-05T01:09:29.165Z,0.00
2023-05-05T01:10:29.153Z,0.00
2023-05-05T01:11:29.123Z,0.00
2023-05-05T01:12:29.148Z,0.00
2023-05-05T01:13:29.108Z,0.00
2023-05-05T01:14:29.089Z,0.00
2023-05-05T01:15:29.068Z,0.00
2023-05-05T01:16:29.127Z,0.00
2023-05-05T01:17:29.078Z,0.00
2023-05-05T01:18:29.034Z,0.00
2023-05-05T01:19:29.024Z,0.00
2023-05-05T01:20:28.994Z,0.00
2023-05-05T01:21:28.984Z,0.00
2023-05-05T01:22:28.998Z,0.00
2023-05-05T01:23:28.971Z,0.00
2023-05-05T01:24:28.952Z,0.00
2023-05-05T01:25:28.933Z,0.00
2023-05-05T01:26:28.928Z,0.00
2023-05-05T01:27:28.917Z,0.00
2023-05-05T01:28:28.901Z,0.00
2023-05-05T01:29:28.867Z,0.00
2023-05-05T01:30:28.865Z,0.00
2023-05-05T01:31:28.875Z,0.00
2023-05-05T01:32:28.888Z,0.00
2023-05-05T01:33:28.827Z,0.00
2023-05-05T01:34:28.807Z,0.00
2023-05-05T01:35:28.851Z,0.00
2023-05-05T01:36:28.804Z,0.00
2023-05-05T01:37:28.758Z,0.00
2023-05-05T01:38:28.791Z,0.00
2023-05-05T01:39:28.752Z,0.00
2023-05-05T01:40:28.727Z,0.00
2023-05-05T01:41:28.728Z,0.00
2023-05-05T01:42:28.700Z,0.00
2023-05-05T01:43:28.703Z,0.00
2023-05-05T01:44:28.678Z,0.00
2023-05-05T01:45:28.696Z,0.00
2023-05-05T01:46:28.651Z,0.00
2023-05-05T01:47:28.646Z,0.00
2023-05-05T01:48:28.638Z,0.00
2023-05-05T01:49:28.629Z,0.00
2023-05-05T01:50:28.603Z,0.00
2023-05-05T01:51:28.567Z,0.00
2023-05-05T01:52:28.562Z,0.00
2023-05-05T01:53:28.581Z,0.00
2023-05-05T01:54:28.532Z,0.00
2023-05-05T01:55:28.520Z,0.00
2023-05-05T01:56:28.501Z,0.00
2023-05-05T01:57:28.504Z,0.00
2023-05-05T01:58:28.497Z,0.00
2023-05-05T01:59:28.449Z,0.00
2023-05-05T02:00:28.477Z,0.00
2023-05-05T02:01:28.478Z,0.00
2023-05-05T02:02:28.519Z,0.00
2023-05-05T02:03:28.431Z,0.00
2023-05-05T02:04:28.477Z,0.00
2023-05-05T02:05:28.387Z,0.00
2023-05-05T02:06:28.375Z,0.00
2023-05-05T02:07:28.360Z,0.00
2023-05-05T02:08:28.357Z,0.00
2023-05-05T02:09:28.333Z,0.00
2023-05-05T02:10:28.341Z,0.00
2023-05-05T02:11:28.322Z,0.00
2023-05-05T02:12:28.300Z,0.00
2023-05-05T02:13:28.273Z,0.00
2023-05-05T02:14:28.267Z,0.00
2023-05-05T02:15:28.255Z,0.00
2023-05-05T02:16:28.237Z,0.00
2023-05-05T02:17:28.255Z,0.00
2023-05-05T02:18:28.207Z,0.00
2023-05-05T02:19:28.209Z,0.00
2023-05-05T02:20:28.251Z,0.00
2023-05-05T02:21:28.170Z,0.00
2023-05-05T02:22:28.216Z,0.00
2023-05-05T02:23:28.151Z,0.00
2023-05-05T02:24:28.125Z,0.00
2023-05-05T02:25:28.203Z,0.00
2023-05-05T02:26:28.109Z,0.00
2023-05-05T02:27:28.092Z,0.00
2023-05-05T02:28:28.089Z,0.00
2023-05-05T02:29:28.061Z,0.00
2023-05-05T02:30:28.058Z,0.00
2023-05-05T02:31:28.094Z,0.00
2023-05-05T02:32:28.051Z,0.00
2023-05-05T02:33:28.004Z,0.00
2023-05-05T02:34:28.004Z,0.00
2023-05-05T02:35:27.980Z,0.00
2023-05-05T02:36:27.984Z,0.00
2023-05-05T02:37:27.963Z,0.00
2023-05-05T02:38:27.920Z,0.00
2023-05-05T02:39:27.949Z,0.00
2023-05-05T02:40:27.925Z,0.00
2023-05-05T02:41:27.936Z,0.00
2023-05-05T02:42:27.882Z,0.00
2023-05-05T02:43:27.880Z,0.00
2023-05-05T02:44:27.853Z,0.00
2023-05-05T02:45:27.845Z,0.00
2023-05-05T02:46:27.894Z,0.00
2023-05-05T02:47:27.853Z,0.00
2023-05-05T02:48:27.796Z,0.00
2023-05-05T02:49:27.796Z,0.00
2023-05-05T02:50:27.765Z,0.00
2023-05-05T02:51:27.774Z,0.00
2023-05-05T02:52:27.746Z,0.00
2023-05-05T02:53:27.880Z,0.00
2023-05-05T02:54:27.720Z,0.00
2023-05-05T02:55:27.715Z,0.00
2023-05-05T02:56:27.714Z,0.00
2023-05-05T02:57:27.709Z,0.00
2023-05-05T02:58:27.657Z,0.00
2023-05-05T02:59:27.664Z,0.00
2023-05-05T03:00:27.659Z,0.00
2023-05-05T03:01:27.732Z,0.00
2023-05-05T03:02:27.672Z,0.00
2023-05-05T03:03:27.672Z,0.00
2023-05-05T03:04:27.585Z,0.00
2023-05-05T03:05:27.577Z,0.00
2023-05-05T03:06:27.580Z,0.00
2023-05-05T03:07:27.563Z,0.00
2023-05-05T03:08:27.520Z,0.00
2023-05-05T03:09:27.525Z,0.00
2023-05-05T03:10:27.497Z,0.00
2023-05-05T03:11:27.512Z,0.00
2023-05-05T03:12:27.473Z,0.00
2023-05-05T03:13:27.461Z,0.00
2023-05-05T03:14:27.441Z,0.00
2023-05-05T03:15:27.444Z,0.00
2023-05-05T03:16:27.451Z,0.00
2023-05-05T03:17:27.488Z,0.00
2023-05-05T03:18:27.391Z,0.00
2023-05-05T03:19:27.382Z,0.00
2023-05-05T03:20:27.378Z,0.00
2023-05-05T03:21:27.370Z,0.00
2023-05-05T03:22:27.346Z,0.00
2023-05-05T03:23:27.323Z,0.00
2023-05-05T03:24:27.305Z,0.00
2023-05-05T03:25:27.306Z,0.00
2023-05-05T03:26:27.295Z,0.00
2023-05-05T03:27:27.283Z,0.00
2023-05-05T03:28:27.262Z,0.00
2023-05-05T03:29:27.256Z,0.00
2023-05-05T03:30:27.220Z,0.00
2023-05-05T03:31:27.269Z,0.00
2023-05-05T03:32:27.230Z,0.00
2023-05-05T03:33:27.193Z,0.00
2023-05-05T03:34:27.186Z,0.00
2023-05-05T03:35:27.165Z,4.00
2023-05-05T03:36:29.006Z,4.00
2023-05-05T03:37:27.153Z,0.00
2023-05-05T03:38:27.111Z,4.00
2023-05-05T03:39:27.099Z,4.00
2023-05-05T03:40:36.372Z,4.00
2023-05-05T03:41:28.105Z,4.00
2023-05-05T03:42:27.068Z,4.00
2023-05-05T03:43:27.058Z,8.00
2023-05-05T03:44:27.049Z,8.00
2023-05-05T03:45:27.192Z,8.00
2023-05-05T03:46:27.032Z,12.00
2023-05-05T03:47:27.019Z,12.00
2023-05-05T03:48:26.989Z,12.00
2023-05-05T03:49:26.996Z,16.00
2023-05-05T03:50:26.950Z,16.00
2023-05-05T03:51:26.965Z,20.00
2023-05-05T03:52:26.924Z,24.00
2023-05-05T03:53:26.923Z,28.00
2023-05-05T03:54:26.915Z,28.00
2023-05-05T03:55:26.900Z,32.00
2023-05-05T03:56:26.898Z,40.00
2023-05-05T03:57:26.864Z,40.00
2023-05-05T03:58:26.848Z,44.00
2023-05-05T03:59:26.886Z,48.00
2023-05-05T04:00:26.827Z,56.00
2023-05-05T04:01:26.833Z,60.00
2023-05-05T04:02:26.977Z,60.00
2023-05-05T04:03:26.998Z,64.00
2023-05-05T04:04:26.857Z,72.00
2023-05-05T04:05:26.751Z,76.00
2023-05-05T04:06:26.752Z,80.00
2023-05-05T04:07:26.735Z,80.00
2023-05-05T04:08:26.710Z,84.00
2023-05-05T04:09:26.716Z,84.00
2023-05-05T04:10:26.692Z,92.00
2023-05-05T04:11:26.705Z,100.00
2023-05-05T04:12:26.676Z,108.00
2023-05-05T04:13:26.653Z,120.00
2023-05-05T04:14:26.638Z,128.00
2023-05-05T04:15:26.626Z,140.00
2023-05-05T04:16:26.686Z,152.00
2023-05-05T04:17:26.627Z,168.00
2023-05-05T04:18:26.585Z,180.00
2023-05-05T04:19:26.593Z,184.00
2023-05-05T04:20:26.573Z,192.00
2023-05-05T04:21:26.609Z,192.00
2023-05-05T04:22:26.521Z,200.00
2023-05-05T04:23:26.530Z,208.00
2023-05-05T04:24:26.517Z,212.00
2023-05-05T04:25:26.496Z,220.00
2023-05-05T04:26:26.494Z,228.00
2023-05-05T04:27:26.465Z,240.00
2023-05-05T04:28:26.469Z,248.00
2023-05-05T04:29:26.454Z,256.00
2023-05-05T04:30:26.420Z,264.00
2023-05-05T04:31:26.436Z,272.00
2023-05-05T04:32:26.418Z,272.00
2023-05-05T04:33:26.382Z,272.00
2023-05-05T04:34:26.362Z,280.00
2023-05-05T04:35:26.387Z,284.00
2023-05-05T04:36:26.366Z,288.00
2023-05-05T04:37:26.354Z,296.00
2023-05-05T04:38:26.336Z,300.00
2023-05-05T04:39:26.320Z,308.00
2023-05-05T04:40:26.326Z,320.00
2023-05-05T04:42:26.248Z,340.00
2023-05-05T04:43:26.245Z,356.00
2023-05-05T04:44:26.229Z,364.00
2023-05-05T04:45:26.251Z,376.00
2023-05-05T04:46:26.275Z,384.00
2023-05-05T04:47:26.207Z,400.00
2023-05-05T04:48:26.684Z,412.00
2023-05-05T04:49:26.697Z,420.00
2023-05-05T04:50:26.176Z,432.00
2023-05-05T04:51:26.154Z,440.00
2023-05-05T04:52:26.114Z,448.00
2023-05-05T04:53:26.666Z,460.00
2023-05-05T04:54:26.189Z,480.00
2023-05-05T04:55:26.548Z,496.00
2023-05-05T04:56:26.320Z,520.00
2023-05-05T04:57:26.348Z,540.00
2023-05-05T04:58:26.029Z,548.00
2023-05-05T04:59:26.023Z,548.00
2023-05-05T05:00:26.006Z,552.00
2023-05-05T05:01:26.026Z,556.00
2023-05-05T05:02:26.022Z,552.00
2023-05-05T05:03:26.067Z,560.00
2023-05-05T05:04:25.954Z,564.00
2023-05-05T05:05:25.947Z,576.00
2023-05-05T05:06:25.960Z,584.00
2023-05-05T05:07:25.961Z,580.00
2023-05-05T05:08:25.900Z,588.00
2023-05-05T05:09:25.899Z,600.00
2023-05-05T05:10:25.875Z,608.00
2023-05-05T05:11:25.882Z,620.00
2023-05-05T05:12:25.845Z,628.00
2023-05-05T05:13:25.936Z,632.00
2023-05-05T05:14:25.808Z,628.00
2023-05-05T05:15:25.802Z,616.00
2023-05-05T05:16:25.826Z,600.00
2023-05-05T05:17:25.832Z,580.00
2023-05-05T05:18:25.783Z,572.00
2023-05-05T05:19:25.755Z,572.00
2023-05-05T05:20:25.743Z,580.00
2023-05-05T05:21:25.744Z,592.00
2023-05-05T05:22:25.708Z,608.00
2023-05-05T05:23:25.694Z,628.00
2023-05-05T05:24:25.674Z,648.00
2023-05-05T05:25:25.667Z,672.00
2023-05-05T05:26:25.667Z,688.00
2023-05-05T05:27:25.637Z,688.00
2023-05-05T05:28:25.644Z,680.00
2023-05-05T05:29:25.625Z,680.00
2023-05-05T05:30:25.583Z,688.00
2023-05-05T05:31:25.642Z,708.00
2023-05-05T05:32:25.657Z,736.00
2023-05-05T05:33:25.590Z,780.00
2023-05-05T05:34:25.543Z,812.00
2023-05-05T05:35:25.532Z,812.00
2023-05-05T05:36:25.527Z,792.00
2023-05-05T05:37:25.531Z,784.00
2023-05-05T05:38:25.506Z,780.00
2023-05-05T05:39:25.476Z,784.00
2023-05-05T05:40:25.472Z,788.00
2023-05-05T05:41:25.499Z,792.00
2023-05-05T05:42:25.434Z,788.00
2023-05-05T05:43:25.415Z,800.00
2023-05-05T05:44:25.416Z,852.00
2023-05-05T05:45:25.404Z,908.00
2023-05-05T05:46:25.421Z,956.00
2023-05-05T05:47:25.475Z,1000.00
2023-05-05T05:48:25.347Z,1004.00
2023-05-05T05:49:25.342Z,996.00
2023-05-05T05:50:25.335Z,964.00
2023-05-05T05:51:25.329Z,964.00
2023-05-05T05:52:25.305Z,1000.00
2023-05-05T05:53:25.284Z,1068.00
2023-05-05T05:54:25.327Z,1144.00
2023-05-05T05:55:25.277Z,1196.00
2023-05-05T05:56:25.249Z,1200.00
2023-05-05T05:57:25.228Z,1192.00
2023-05-05T05:58:25.210Z,1240.00
2023-05-05T05:59:25.200Z,1300.00
2023-05-05T06:00:25.191Z,1380.00
2023-05-05T06:01:25.218Z,1436.00
2023-05-05T06:02:25.168Z,1420.00
2023-05-05T06:03:25.320Z,1316.00
2023-05-05T06:04:25.369Z,1148.00
2023-05-05T06:05:25.139Z,1120.00
2023-05-05T06:06:25.132Z,1112.00
2023-05-05T06:07:25.089Z,1096.00
2023-05-05T06:08:25.282Z,1120.00
2023-05-05T06:09:25.069Z,1132.00
2023-05-05T06:10:28.325Z,1128.00
2023-05-05T06:11:25.040Z,1116.00
2023-05-05T06:12:25.017Z,1156.00
2023-05-05T06:13:25.009Z,1192.00
2023-05-05T06:14:24.990Z,1284.00
2023-05-05T06:15:25.000Z,1348.00
2023-05-05T06:16:25.049Z,1364.00
2023-05-05T06:17:24.965Z,1340.00
2023-05-05T06:18:24.976Z,1328.00
2023-05-05T06:19:24.931Z,1336.00
2023-05-05T06:20:24.940Z,1336.00
2023-05-05T06:21:24.900Z,1344.00
2023-05-05T06:22:24.880Z,1376.00
2023-05-05T06:23:24.869Z,1436.00
2023-05-05T06:24:24.860Z,1456.00
2023-05-05T06:25:24.864Z,1472.00
2023-05-05T06:26:24.826Z,1444.00
2023-05-05T06:27:24.834Z,1380.00
2023-05-05T06:28:24.799Z,1360.00
2023-05-05T06:29:24.792Z,1324.00
2023-05-05T06:30:24.794Z,1348.00
2023-05-05T06:31:24.791Z,1328.00
2023-05-05T06:32:24.795Z,1300.00
2023-05-05T06:33:24.750Z,1292.00
2023-05-05T06:34:24.752Z,1320.00
2023-05-05T06:35:24.739Z,1352.00
2023-05-05T06:36:24.727Z,1384.00
2023-05-05T06:37:24.672Z,1388.00
2023-05-05T06:38:24.671Z,1456.00
2023-05-05T06:39:24.660Z,1524.00
2023-05-05T06:40:24.654Z,1584.00
2023-05-05T06:41:24.654Z,1640.00
2023-05-05T06:42:24.629Z,1676.00
2023-05-05T06:43:24.596Z,1676.00
2023-05-05T06:44:24.611Z,1732.00
2023-05-05T06:45:24.584Z,1740.00
2023-05-05T06:46:24.640Z,1772.00
2023-05-05T06:47:24.560Z,1760.00
2023-05-05T06:48:24.541Z,1764.00
2023-05-05T06:49:24.525Z,1780.00
2023-05-05T06:50:24.509Z,1796.00
2023-05-05T06:51:24.514Z,1836.00
2023-05-05T06:52:24.483Z,1872.00
2023-05-05T06:53:24.461Z,1972.00
2023-05-05T06:54:24.471Z,2072.00
2023-05-05T06:55:24.439Z,2168.00
2023-05-05T06:56:24.442Z,2188.00
2023-05-05T06:57:24.412Z,2192.00
2023-05-05T06:58:24.417Z,2268.00
2023-05-05T06:59:24.391Z,2320.00
2023-05-05T07:00:24.373Z,2308.00
2023-05-05T07:01:24.485Z,2320.00
2023-05-05T07:02:26.691Z,2328.00
2023-05-05T07:03:24.372Z,2352.00
2023-05-05T07:04:24.602Z,2356.00
2023-05-05T07:05:24.337Z,2352.00
2023-05-05T07:06:24.297Z,2436.00
2023-05-05T07:07:24.286Z,2464.00
2023-05-05T07:08:24.272Z,2420.00
2023-05-05T07:09:24.257Z,2328.00
2023-05-05T07:10:24.258Z,2260.00
2023-05-05T07:11:24.237Z,2212.00
2023-05-05T07:12:24.236Z,2104.00
2023-05-05T07:13:24.216Z,2028.00
2023-05-05T07:14:24.599Z,1948.00
2023-05-05T07:15:29.243Z,1872.00
2023-05-05T07:16:25.235Z,1808.00
2023-05-05T07:17:24.175Z,1776.00
2023-05-05T07:18:24.144Z,1820.00
2023-05-05T07:19:24.136Z,1944.00
2023-05-05T07:20:24.433Z,2120.00
2023-05-05T07:21:24.113Z,2260.00
2023-05-05T07:22:24.106Z,2540.00
2023-05-05T07:23:24.083Z,2736.00
2023-05-05T07:24:24.077Z,2780.00
2023-05-05T07:25:24.061Z,2860.00
2023-05-05T07:26:24.063Z,2956.00
2023-05-05T07:27:24.043Z,3072.00
2023-05-05T07:28:24.008Z,3156.00
2023-05-05T07:29:23.985Z,3300.00
2023-05-05T07:30:24.254Z,3180.00
2023-05-05T07:31:23.964Z,3048.00
2023-05-05T07:32:23.965Z,2832.00
2023-05-05T07:33:23.946Z,3028.00
2023-05-05T07:34:23.932Z,3408.00
2023-05-05T07:35:23.911Z,3808.00
2023-05-05T07:36:23.923Z,3692.00
2023-05-05T07:37:24.054Z,3284.00
2023-05-05T07:38:23.867Z,3532.00
2023-05-05T07:39:23.854Z,3632.00
2023-05-05T07:40:23.883Z,3076.00
2023-05-05T07:41:23.830Z,3148.00
2023-05-05T07:42:23.823Z,3192.00
2023-05-05T07:43:23.787Z,2776.00
2023-05-05T07:44:23.819Z,2656.00
2023-05-05T07:45:23.792Z,2656.00
2023-05-05T07:46:23.807Z,2868.00
2023-05-05T07:47:23.748Z,2908.00
2023-05-05T07:48:23.727Z,2876.00
2023-05-05T07:49:23.727Z,2988.00
2023-05-05T07:50:23.757Z,2936.00
2023-05-05T07:51:23.719Z,2884.00
2023-05-05T07:52:37.319Z,2884.00
2023-05-05T07:53:24.659Z,2800.00
2023-05-05T07:54:23.668Z,2600.00
2023-05-05T07:55:23.625Z,2532.00
2023-05-05T07:56:23.620Z,2464.00
2023-05-05T07:57:23.604Z,2552.00
2023-05-05T07:58:23.601Z,2636.00
2023-05-05T07:59:23.598Z,2756.00
2023-05-05T08:00:23.565Z,2836.00
2023-05-05T08:01:23.545Z,2876.00
2023-05-05T08:02:23.623Z,3200.00
2023-05-05T08:03:23.653Z,3444.00
2023-05-05T08:04:23.552Z,3744.00
2023-05-05T08:05:23.520Z,4004.00
2023-05-05T08:06:23.489Z,4124.00
2023-05-05T08:07:23.466Z,3952.00
2023-05-05T08:08:23.461Z,3260.00
2023-05-05T08:09:23.439Z,2684.00
2023-05-05T08:10:23.448Z,2516.00
2023-05-05T08:11:23.410Z,2580.00
2023-05-05T08:12:23.405Z,2684.00
2023-05-05T08:13:23.383Z,2808.00
2023-05-05T08:14:23.385Z,3040.00
2023-05-05T08:15:23.370Z,3244.00
2023-05-05T08:16:23.360Z,3396.00
2023-05-05T08:17:23.386Z,3512.00
2023-05-05T08:18:23.329Z,3688.00
2023-05-05T08:19:28.737Z,3932.00
2023-05-05T08:20:24.368Z,3880.00
2023-05-05T08:21:23.297Z,3636.00
2023-05-05T08:22:23.290Z,3316.00
2023-05-05T08:23:23.271Z,3140.00
2023-05-05T08:24:23.239Z,3068.00
2023-05-05T08:25:23.219Z,3108.00
2023-05-05T08:26:23.217Z,3104.00
2023-05-05T08:27:23.208Z,3060.00
2023-05-05T08:28:23.202Z,3248.00
2023-05-05T08:29:23.171Z,3564.00
2023-05-05T08:30:23.263Z,3896.00
2023-05-05T08:31:23.217Z,4096.00
2023-05-05T08:32:23.145Z,4388.00
2023-05-05T08:33:23.122Z,4472.00
2023-05-05T08:34:23.101Z,4380.00
2023-05-05T08:35:23.113Z,4364.00
2023-05-05T08:36:23.108Z,4348.00
2023-05-05T08:37:23.074Z,4300.00
2023-05-05T08:38:23.083Z,4404.00
2023-05-05T08:39:23.072Z,4812.00
2023-05-05T08:40:23.075Z,4844.00
2023-05-05T08:41:23.022Z,5236.00
2023-05-05T08:42:36.366Z,5520.00
2023-05-05T08:43:24.043Z,5288.00
2023-05-05T08:44:22.979Z,4700.00
2023-05-05T08:45:22.982Z,4304.00
2023-05-05T08:46:22.995Z,4344.00
2023-05-05T08:47:22.935Z,4404.00
2023-05-05T08:48:22.927Z,4880.00
2023-05-05T08:49:22.901Z,5880.00
2023-05-05T08:50:22.957Z,6188.00
2023-05-05T08:51:22.919Z,6108.00
2023-05-05T08:52:22.874Z,6516.00
2023-05-05T08:53:22.851Z,6516.00
2023-05-05T08:54:22.834Z,6544.00
2023-05-05T08:55:22.852Z,5532.00
2023-05-05T08:56:22.801Z,5524.00
2023-05-05T08:57:22.784Z,5868.00
2023-05-05T08:58:22.793Z,6468.00
2023-05-05T08:59:22.793Z,6016.00
2023-05-05T09:00:22.846Z,5064.00
2023-05-05T09:01:22.811Z,4532.00
2023-05-05T09:02:22.817Z,4508.00
2023-05-05T09:03:22.742Z,4500.00
2023-05-05T09:04:22.741Z,4192.00
2023-05-05T09:05:22.690Z,4024.00
2023-05-05T09:06:22.685Z,4060.00
2023-05-05T09:07:22.652Z,3904.00
2023-05-05T09:08:22.671Z,4332.00
2023-05-05T09:09:22.638Z,5392.00
2023-05-05T09:10:22.682Z,6160.00
2023-05-05T09:11:22.625Z,6040.00
2023-05-05T09:12:22.594Z,5544.00
2023-05-05T09:13:22.593Z,4996.00
2023-05-05T09:14:22.591Z,4504.00
2023-05-05T09:15:22.539Z,4396.00
2023-05-05T09:16:22.572Z,4080.00
2023-05-05T09:17:22.528Z,4272.00
2023-05-05T09:18:22.554Z,4348.00
2023-05-05T09:19:22.478Z,4648.00
2023-05-05T09:20:22.479Z,5300.00
2023-05-05T09:21:22.463Z,5412.00
2023-05-05T09:22:22.458Z,5052.00
2023-05-05T09:23:22.468Z,4716.00
2023-05-05T09:24:22.434Z,4428.00
2023-05-05T09:25:22.440Z,4308.00
2023-05-05T09:26:22.418Z,4580.00
2023-05-05T09:27:22.406Z,4776.00
2023-05-05T09:28:22.397Z,4884.00
2023-05-05T09:29:22.367Z,4836.00
2023-05-05T09:30:22.350Z,4872.00
2023-05-05T09:31:22.404Z,4816.00
2023-05-05T09:32:22.373Z,4580.00
2023-05-05T09:33:22.304Z,4296.00
2023-05-05T09:34:22.299Z,4700.00
2023-05-05T09:35:22.294Z,5140.00
2023-05-05T09:36:22.269Z,5548.00
2023-05-05T09:37:22.266Z,6384.00
2023-05-05T09:38:22.237Z,6992.00
2023-05-05T09:39:22.235Z,7464.00
2023-05-05T09:40:22.326Z,7828.00
2023-05-05T09:41:22.193Z,7624.00
2023-05-05T09:42:22.186Z,7960.00
2023-05-05T09:43:22.177Z,8124.00
2023-05-05T09:44:22.202Z,7736.00
2023-05-05T09:45:22.158Z,7312.00
2023-05-05T09:46:22.210Z,7332.00
2023-05-05T09:47:29.443Z,7508.00
2023-05-05T09:48:23.133Z,7620.00
2023-05-05T09:49:22.101Z,7440.00
2023-05-05T09:50:22.075Z,6884.00
2023-05-05T09:51:22.158Z,6484.00
2023-05-05T09:52:22.053Z,5884.00
2023-05-05T09:53:22.027Z,6524.00
2023-05-05T09:54:22.021Z,6820.00
2023-05-05T09:55:22.002Z,6880.00
2023-05-05T09:56:22.024Z,6508.00
2023-05-05T09:57:21.969Z,5768.00
2023-05-05T09:58:21.992Z,4956.00
2023-05-05T09:59:21.959Z,3704.00
2023-05-05T10:00:21.988Z,2908.00
2023-05-05T10:01:21.980Z,2872.00
2023-05-05T10:02:21.913Z,3288.00
2023-05-05T10:03:21.895Z,3824.00
2023-05-05T10:04:21.941Z,4416.00
2023-05-05T10:05:21.957Z,5200.00
2023-05-05T10:06:21.863Z,5980.00
2023-05-05T10:07:21.851Z,6472.00
2023-05-05T10:08:21.852Z,6416.00
2023-05-05T10:09:21.812Z,6608.00
2023-05-05T10:10:21.832Z,6732.00
2023-05-05T10:11:21.788Z,7432.00
2023-05-05T10:12:21.779Z,8208.00
2023-05-05T10:13:21.753Z,8900.00
2023-05-05T10:14:21.790Z,8976.00
2023-05-05T10:15:21.744Z,9320.00
2023-05-05T10:16:21.793Z,8432.00
2023-05-05T10:17:21.704Z,8160.00
2023-05-05T10:18:21.728Z,13016.00
2023-05-05T10:19:21.685Z,16736.00
2023-05-05T10:20:21.674Z,21248.00
2023-05-05T10:21:21.669Z,22624.00
2023-05-05T10:22:21.649Z,21664.00
2023-05-05T10:23:21.644Z,17952.00
2023-05-05T10:24:21.618Z,13716.00
2023-05-05T10:25:21.598Z,22464.00
2023-05-05T10:26:21.608Z,19680.00
2023-05-05T10:27:21.569Z,18528.00
2023-05-05T10:28:21.559Z,27136.00
2023-05-05T10:29:21.548Z,31616.00
2023-05-05T10:30:21.563Z,28992.00
2023-05-05T10:31:26.543Z,20640.00
2023-05-05T10:32:51.537Z,16736.00
2023-05-05T10:34:21.522Z,14388.00
2023-05-05T10:35:21.535Z,19648.00
2023-05-05T10:36:21.472Z,23328.00
2023-05-05T10:37:21.469Z,22208.00
2023-05-05T10:38:21.441Z,22304.00
2023-05-05T10:39:21.417Z,12028.00
2023-05-05T10:40:21.408Z,12028.00
2023-05-05T10:41:21.410Z,13880.00
2023-05-05T10:42:21.389Z,9940.00
2023-05-05T10:43:21.402Z,10716.00
2023-05-05T10:44:21.363Z,6624.00
2023-05-05T10:45:21.362Z,5360.00
2023-05-05T10:46:21.513Z,5152.00
2023-05-05T10:47:21.382Z,5124.00
2023-05-05T10:48:21.312Z,4596.00
2023-05-05T10:49:21.297Z,3408.00
2023-05-05T10:50:21.263Z,2356.00
2023-05-05T10:51:35.118Z,1788.00
2023-05-05T10:52:22.252Z,1492.00
2023-05-05T10:53:21.278Z,1316.00
2023-05-05T10:54:21.345Z,1176.00
2023-05-05T10:55:21.227Z,1124.00
2023-05-05T10:56:21.204Z,1172.00
2023-05-05T10:57:21.177Z,1372.00
2023-05-05T10:58:21.174Z,1660.00
2023-05-05T10:59:21.161Z,2052.00
2023-05-05T11:00:21.138Z,2440.00
2023-05-05T11:01:21.132Z,2604.00
2023-05-05T11:02:21.124Z,2392.00
2023-05-05T11:03:21.217Z,2052.00
2023-05-05T11:04:21.159Z,1944.00
2023-05-05T11:05:21.081Z,2228.00
2023-05-05T11:06:21.055Z,2512.00
2023-05-05T11:07:21.058Z,2700.00
2023-05-05T11:08:21.046Z,2664.00
2023-05-05T11:09:21.021Z,2424.00
2023-05-05T11:10:21.292Z,2104.00
2023-05-05T11:11:20.987Z,2076.00
2023-05-05T11:12:20.996Z,2296.00
2023-05-05T11:13:21.101Z,2600.00
2023-05-05T11:14:20.940Z,2888.00
2023-05-05T11:15:20.941Z,3092.00
2023-05-05T11:16:20.924Z,2972.00
2023-05-05T11:17:20.934Z,2668.00
2023-05-05T11:18:20.888Z,2200.00
2023-05-05T11:19:20.916Z,1752.00
2023-05-05T11:20:20.857Z,1412.00
2023-05-05T11:21:20.877Z,1156.00
2023-05-05T11:22:20.866Z,928.00
2023-05-05T11:23:20.847Z,804.00
2023-05-05T11:24:20.816Z,868.00
2023-05-05T11:25:20.854Z,1124.00
2023-05-05T11:26:20.793Z,1524.00
2023-05-05T11:27:20.783Z,1908.00
2023-05-05T11:28:20.751Z,2160.00
2023-05-05T11:29:20.799Z,2520.00
2023-05-05T11:30:20.729Z,2972.00
2023-05-05T11:31:20.816Z,3076.00
2023-05-05T11:32:20.701Z,3048.00
2023-05-05T11:33:20.720Z,3160.00
2023-05-05T11:34:20.673Z,3192.00
2023-05-05T11:35:20.703Z,3272.00
2023-05-05T11:36:20.661Z,3624.00
2023-05-05T11:37:20.636Z,4072.00
2023-05-05T11:38:20.640Z,4200.00
2023-05-05T11:39:20.606Z,4148.00
2023-05-05T11:40:20.598Z,3956.00
2023-05-05T11:41:20.584Z,3760.00
2023-05-05T11:42:20.578Z,3656.00
2023-05-05T11:43:20.599Z,3636.00
2023-05-05T11:44:20.544Z,3632.00
2023-05-05T11:45:20.534Z,3556.00
2023-05-05T11:46:20.562Z,3436.00
2023-05-05T11:47:20.773Z,3344.00
2023-05-05T11:48:20.504Z,3284.00
2023-05-05T11:49:20.517Z,3164.00
2023-05-05T11:50:20.460Z,3072.00
2023-05-05T11:51:20.449Z,3068.00
2023-05-05T11:52:20.444Z,2944.00
2023-05-05T11:53:20.418Z,2744.00
2023-05-05T11:54:20.408Z,2616.00
2023-05-05T11:55:20.388Z,2384.00
2023-05-05T11:56:20.417Z,2384.00
2023-05-05T11:57:20.384Z,2620.00
2023-05-05T11:58:20.356Z,2692.00
2023-05-05T11:59:20.343Z,2716.00
2023-05-05T12:00:20.336Z,2732.00
2023-05-05T12:01:20.340Z,2760.00
2023-05-05T12:02:20.342Z,2796.00
2023-05-05T12:03:20.383Z,2680.00
2023-05-05T12:04:20.300Z,2600.00
2023-05-05T12:05:20.265Z,2668.00
2023-05-05T12:06:20.250Z,2800.00
2023-05-05T12:07:20.242Z,2972.00
2023-05-05T12:08:20.212Z,3132.00
2023-05-05T12:09:20.207Z,3264.00
2023-05-05T12:10:20.266Z,3576.00
2023-05-05T12:11:20.193Z,4388.00
2023-05-05T12:12:20.170Z,5616.00
2023-05-05T12:13:20.504Z,5736.00
2023-05-05T12:14:20.146Z,5844.00
2023-05-05T12:15:20.321Z,4864.00
2023-05-05T12:16:20.165Z,5724.00
2023-05-05T12:17:20.107Z,7308.00
2023-05-05T12:18:20.089Z,10188.00
2023-05-05T12:19:20.080Z,11340.00
2023-05-05T12:20:20.067Z,10244.00
2023-05-05T12:21:20.033Z,10052.00
2023-05-05T12:22:20.034Z,10100.00
2023-05-05T12:23:20.018Z,7968.00
2023-05-05T12:24:20.033Z,8812.00
2023-05-05T12:25:20.004Z,10624.00
2023-05-05T12:26:19.966Z,8608.00
2023-05-05T12:27:19.974Z,7588.00
2023-05-05T12:28:19.944Z,10376.00
2023-05-05T12:29:19.940Z,13068.00
2023-05-05T12:30:19.952Z,8492.00
2023-05-05T12:31:19.950Z,7228.00